sensor_id;sensor_type;location;lat;lon;timestamp;P1;durP1;ratioP1;P2;durP2;ratioP2
9799;SDS011;4939;52.00085300;4.17406100;2024-03-08T00:02:14;37.97;;;12.75;;
9799;SDS011;4939;52.00085300;4.17406100;2024-03-08T00:04:41;39.28;;;12.10;;
9799;SDS011;4939;52.00085300;4.17406100;2024-03-08T00:07:07;36.45;;;12.55;;
9799;SDS011;4939;52.00085300;4.17406100;2024-03-08T00:09:33;38.92;;;12.10;;
9799;SDS011;4939;52.00085300;4.17406100;2024-03-08T00:11:59;32.75;;;11.13;;
9799;SDS011;4939;52.00085300;4.17406100;2024-03-08T00:14:25;36.70;;;12.55;;
9799;SDS011;4939;52.00085300;4.17406100;2024-03-08T00:16:52;43.53;;;12.68;;
9799;SDS011;4939;52.00085300;4.17406100;2024-03-08T00:19:19;36.35;;;12.18;;
9799;SDS011;4939;52.00085300;4.17406100;2024-03-08T00:21:46;39.10;;;12.77;;
9799;SDS011;4939;52.00085300;4.17406100;2024-03-08T00:24:12;40.15;;;12.73;;
9799;SDS011;4939;52.00085300;4.17406100;2024-03-08T00:26:39;37.50;;;12.93;;
9799;SDS011;4939;52.00085300;4.17406100;2024-03-08T00:29:07;39.30;;;12.57;;
9799;SDS011;4939;52.00085300;4.17406100;2024-03-08T00:31:33;38.67;;;13.50;;
9799;SDS011;4939;52.00085300;4.17406100;2024-03-08T00:33:59;35.25;;;12.18;;
9799;SDS011;4939;52.00085300;4.17406100;2024-03-08T00:36:25;37.35;;;13.70;;
9799;SDS011;4939;52.00085300;4.17406100;2024-03-08T00:38:51;34.47;;;12.30;;
9799;SDS011;4939;52.00085300;4.17406100;2024-03-08T00:41:17;36.20;;;12.63;;
9799;SDS011;4939;52.00085300;4.17406100;2024-03-08T00:43:43;37.97;;;13.20;;
9799;SDS011;4939;52.00085300;4.17406100;2024-03-08T00:46:11;35.80;;;12.98;;
9799;SDS011;4939;52.00085300;4.17406100;2024-03-08T00:48:37;38.55;;;12.75;;
9799;SDS011;4939;52.00085300;4.17406100;2024-03-08T00:51:03;38.85;;;13.93;;
9799;SDS011;4939;52.00085300;4.17406100;2024-03-08T00:53:30;38.10;;;12.23;;
9799;SDS011;4939;52.00085300;4.17406100;2024-03-08T00:55:56;38.13;;;12.95;;
9799;SDS011;4939;52.00085300;4.17406100;2024-03-08T00:58:22;34.30;;;11.77;;
9799;SDS011;4939;52.00085300;4.17406100;2024-03-08T01:00:48;37.00;;;13.02;;
9799;SDS011;4939;52.00085300;4.17406100;2024-03-08T01:03:14;36.67;;;12.15;;
9799;SDS011;4939;52.00085300;4.17406100;2024-03-08T01:05:40;39.25;;;13.43;;
9799;SDS011;4939;52.00085300;4.17406100;2024-03-08T01:08:07;37.88;;;12.75;;
9799;SDS011;4939;52.00085300;4.17406100;2024-03-08T01:10:35;30.25;;;11.15;;
9799;SDS011;4939;52.00085300;4.17406100;2024-03-08T01:13:02;32.65;;;11.80;;
9799;SDS011;4939;52.00085300;4.17406100;2024-03-08T01:15:28;41.35;;;13.88;;
9799;SDS011;4939;52.00085300;4.17406100;2024-03-08T01:17:55;34.08;;;11.55;;
9799;SDS011;4939;52.00085300;4.17406100;2024-03-08T01:20:21;35.45;;;12.75;;
9799;SDS011;4939;52.00085300;4.17406100;2024-03-08T01:22:47;37.13;;;12.40;;
9799;SDS011;4939;52.00085300;4.17406100;2024-03-08T01:25:13;39.92;;;13.38;;
9799;SDS011;4939;52.00085300;4.17406100;2024-03-08T01:27:39;33.85;;;12.30;;
9799;SDS011;4939;52.00085300;4.17406100;2024-03-08T01:30:05;38.08;;;12.68;;
9799;SDS011;4939;52.00085300;4.17406100;2024-03-08T01:32:31;37.92;;;12.90;;
9799;SDS011;4939;52.00085300;4.17406100;2024-03-08T01:34:58;35.25;;;12.73;;
9799;SDS011;4939;52.00085300;4.17406100;2024-03-08T01:37:24;31.67;;;11.90;;
9799;SDS011;4939;52.00085300;4.17406100;2024-03-08T01:39:50;37.92;;;13.25;;
9799;SDS011;4939;52.00085300;4.17406100;2024-03-08T01:42:17;38.22;;;12.93;;
9799;SDS011;4939;52.00085300;4.17406100;2024-03-08T01:44:43;33.83;;;11.45;;
9799;SDS011;4939;52.00085300;4.17406100;2024-03-08T01:47:10;33.00;;;11.65;;
9799;SDS011;4939;52.00085300;4.17406100;2024-03-08T01:49:36;32.92;;;11.77;;
9799;SDS011;4939;52.00085300;4.17406100;2024-03-08T01:52:03;40.85;;;13.43;;
9799;SDS011;4939;52.00085300;4.17406100;2024-03-08T01:54:28;35.05;;;11.90;;
9799;SDS011;4939;52.00085300;4.17406100;2024-03-08T01:56:55;35.78;;;12.70;;
9799;SDS011;4939;52.00085300;4.17406100;2024-03-08T01:59:23;31.05;;;11.95;;
9799;SDS011;4939;52.00085300;4.17406100;2024-03-08T02:01:51;33.30;;;11.77;;
9799;SDS011;4939;52.00085300;4.17406100;2024-03-08T02:04:20;34.35;;;12.85;;
9799;SDS011;4939;52.00085300;4.17406100;2024-03-08T02:06:46;35.20;;;13.27;;
9799;SDS011;4939;52.00085300;4.17406100;2024-03-08T02:09:13;35.10;;;12.90;;
9799;SDS011;4939;52.00085300;4.17406100;2024-03-08T02:11:40;34.83;;;12.27;;
9799;SDS011;4939;52.00085300;4.17406100;2024-03-08T02:14:06;41.17;;;13.60;;
9799;SDS011;4939;52.00085300;4.17406100;2024-03-08T02:16:32;40.20;;;12.63;;
9799;SDS011;4939;52.00085300;4.17406100;2024-03-08T02:18:58;38.30;;;12.55;;
9799;SDS011;4939;52.00085300;4.17406100;2024-03-08T02:21:25;38.30;;;12.95;;
9799;SDS011;4939;52.00085300;4.17406100;2024-03-08T02:23:51;36.85;;;13.65;;
9799;SDS011;4939;52.00085300;4.17406100;2024-03-08T02:26:17;35.53;;;12.18;;
9799;SDS011;4939;52.00085300;4.17406100;2024-03-08T02:28:44;35.50;;;11.93;;
9799;SDS011;4939;52.00085300;4.17406100;2024-03-08T02:31:10;34.75;;;13.18;;
9799;SDS011;4939;52.00085300;4.17406100;2024-03-08T02:33:37;32.88;;;12.23;;
9799;SDS011;4939;52.00085300;4.17406100;2024-03-08T02:36:03;37.47;;;12.77;;
9799;SDS011;4939;52.00085300;4.17406100;2024-03-08T02:38:31;38.85;;;13.60;;
9799;SDS011;4939;52.00085300;4.17406100;2024-03-08T02:40:58;37.75;;;12.40;;
9799;SDS011;4939;52.00085300;4.17406100;2024-03-08T02:43:24;36.08;;;12.77;;
9799;SDS011;4939;52.00085300;4.17406100;2024-03-08T02:45:50;28.65;;;11.20;;
9799;SDS011;4939;52.00085300;4.17406100;2024-03-08T02:48:18;36.85;;;12.15;;
9799;SDS011;4939;52.00085300;4.17406100;2024-03-08T02:50:44;37.33;;;12.27;;
9799;SDS011;4939;52.00085300;4.17406100;2024-03-08T02:53:10;40.80;;;12.30;;
9799;SDS011;4939;52.00085300;4.17406100;2024-03-08T02:55:37;35.67;;;11.93;;
9799;SDS011;4939;52.00085300;4.17406100;2024-03-08T02:58:04;38.40;;;12.27;;
9799;SDS011;4939;52.00085300;4.17406100;2024-03-08T03:00:33;34.47;;;11.85;;
9799;SDS011;4939;52.00085300;4.17406100;2024-03-08T03:02:59;44.60;;;13.45;;
9799;SDS011;4939;52.00085300;4.17406100;2024-03-08T03:05:28;34.70;;;12.85;;
9799;SDS011;4939;52.00085300;4.17406100;2024-03-08T03:07:54;41.28;;;13.07;;
9799;SDS011;4939;52.00085300;4.17406100;2024-03-08T03:10:21;39.40;;;13.55;;
9799;SDS011;4939;52.00085300;4.17406100;2024-03-08T03:12:47;37.33;;;12.35;;
9799;SDS011;4939;52.00085300;4.17406100;2024-03-08T03:15:16;36.95;;;11.98;;
9799;SDS011;4939;52.00085300;4.17406100;2024-03-08T03:17:46;31.20;;;11.60;;
9799;SDS011;4939;52.00085300;4.17406100;2024-03-08T03:20:13;32.72;;;12.32;;
9799;SDS011;4939;52.00085300;4.17406100;2024-03-08T03:22:39;42.30;;;17.58;;
9799;SDS011;4939;52.00085300;4.17406100;2024-03-08T03:25:12;45.13;;;18.83;;
9799;SDS011;4939;52.00085300;4.17406100;2024-03-08T03:27:38;37.42;;;14.48;;
9799;SDS011;4939;52.00085300;4.17406100;2024-03-08T03:30:05;37.75;;;14.07;;
9799;SDS011;4939;52.00085300;4.17406100;2024-03-08T03:32:50;35.78;;;12.93;;
9799;SDS011;4939;52.00085300;4.17406100;2024-03-08T03:35:19;34.90;;;13.25;;
9799;SDS011;4939;52.00085300;4.17406100;2024-03-08T03:37:45;35.70;;;13.10;;
9799;SDS011;4939;52.00085300;4.17406100;2024-03-08T03:40:27;34.97;;;12.45;;
9799;SDS011;4939;52.00085300;4.17406100;2024-03-08T03:42:53;35.90;;;12.70;;
9799;SDS011;4939;52.00085300;4.17406100;2024-03-08T03:45:19;36.05;;;13.65;;
9799;SDS011;4939;52.00085300;4.17406100;2024-03-08T03:47:46;36.47;;;12.95;;
9799;SDS011;4939;52.00085300;4.17406100;2024-03-08T03:50:12;37.00;;;13.80;;
9799;SDS011;4939;52.00085300;4.17406100;2024-03-08T03:52:38;37.17;;;12.82;;
9799;SDS011;4939;52.00085300;4.17406100;2024-03-08T03:55:04;33.25;;;11.25;;
9799;SDS011;4939;52.00085300;4.17406100;2024-03-08T03:57:31;38.42;;;12.85;;
9799;SDS011;4939;52.00085300;4.17406100;2024-03-08T03:59:57;32.50;;;12.52;;
9799;SDS011;4939;52.00085300;4.17406100;2024-03-08T04:02:23;37.63;;;12.48;;
9799;SDS011;4939;52.00085300;4.17406100;2024-03-08T04:04:52;37.20;;;12.75;;
9799;SDS011;4939;52.00085300;4.17406100;2024-03-08T04:07:20;29.65;;;11.82;;
9799;SDS011;4939;52.00085300;4.17406100;2024-03-08T04:09:46;33.53;;;12.77;;
9799;SDS011;4939;52.00085300;4.17406100;2024-03-08T04:12:12;36.08;;;13.15;;
9799;SDS011;4939;52.00085300;4.17406100;2024-03-08T04:14:41;36.05;;;12.85;;
9799;SDS011;4939;52.00085300;4.17406100;2024-03-08T04:17:07;35.58;;;12.82;;
9799;SDS011;4939;52.00085300;4.17406100;2024-03-08T04:19:37;41.95;;;13.20;;
9799;SDS011;4939;52.00085300;4.17406100;2024-03-08T04:22:03;37.10;;;12.52;;
9799;SDS011;4939;52.00085300;4.17406100;2024-03-08T04:24:29;35.53;;;13.13;;
9799;SDS011;4939;52.00085300;4.17406100;2024-03-08T04:26:56;39.13;;;13.80;;
9799;SDS011;4939;52.00085300;4.17406100;2024-03-08T04:29:22;38.22;;;14.38;;
9799;SDS011;4939;52.00085300;4.17406100;2024-03-08T04:31:48;38.90;;;14.23;;
9799;SDS011;4939;52.00085300;4.17406100;2024-03-08T04:34:14;36.50;;;12.85;;
9799;SDS011;4939;52.00085300;4.17406100;2024-03-08T04:36:40;41.55;;;13.88;;
9799;SDS011;4939;52.00085300;4.17406100;2024-03-08T04:39:06;42.28;;;13.68;;
9799;SDS011;4939;52.00085300;4.17406100;2024-03-08T04:41:37;37.42;;;13.40;;
9799;SDS011;4939;52.00085300;4.17406100;2024-03-08T04:44:03;33.55;;;12.60;;
9799;SDS011;4939;52.00085300;4.17406100;2024-03-08T04:46:29;37.80;;;13.20;;
9799;SDS011;4939;52.00085300;4.17406100;2024-03-08T04:48:55;37.78;;;14.45;;
9799;SDS011;4939;52.00085300;4.17406100;2024-03-08T04:51:22;36.97;;;13.20;;
9799;SDS011;4939;52.00085300;4.17406100;2024-03-08T04:53:48;36.55;;;13.02;;
9799;SDS011;4939;52.00085300;4.17406100;2024-03-08T04:56:14;36.17;;;12.98;;
9799;SDS011;4939;52.00085300;4.17406100;2024-03-08T04:58:41;33.88;;;12.95;;
9799;SDS011;4939;52.00085300;4.17406100;2024-03-08T05:01:07;38.72;;;14.07;;
9799;SDS011;4939;52.00085300;4.17406100;2024-03-08T05:03:35;36.63;;;13.13;;
9799;SDS011;4939;52.00085300;4.17406100;2024-03-08T05:06:01;42.45;;;13.98;;
9799;SDS011;4939;52.00085300;4.17406100;2024-03-08T05:08:28;36.92;;;12.73;;
9799;SDS011;4939;52.00085300;4.17406100;2024-03-08T05:10:54;39.97;;;13.68;;
9799;SDS011;4939;52.00085300;4.17406100;2024-03-08T05:13:20;39.72;;;14.25;;
9799;SDS011;4939;52.00085300;4.17406100;2024-03-08T05:15:49;34.75;;;13.10;;
9799;SDS011;4939;52.00085300;4.17406100;2024-03-08T05:18:16;39.70;;;14.35;;
9799;SDS011;4939;52.00085300;4.17406100;2024-03-08T05:20:42;38.80;;;12.75;;
9799;SDS011;4939;52.00085300;4.17406100;2024-03-08T05:23:08;41.42;;;13.68;;
9799;SDS011;4939;52.00085300;4.17406100;2024-03-08T05:25:34;37.25;;;13.18;;
9799;SDS011;4939;52.00085300;4.17406100;2024-03-08T05:28:01;38.00;;;12.88;;
9799;SDS011;4939;52.00085300;4.17406100;2024-03-08T05:30:29;38.33;;;13.68;;
9799;SDS011;4939;52.00085300;4.17406100;2024-03-08T05:32:55;38.17;;;12.82;;
9799;SDS011;4939;52.00085300;4.17406100;2024-03-08T05:35:22;39.70;;;13.63;;
9799;SDS011;4939;52.00085300;4.17406100;2024-03-08T05:37:48;39.00;;;12.90;;
9799;SDS011;4939;52.00085300;4.17406100;2024-03-08T05:40:14;35.42;;;13.38;;
9799;SDS011;4939;52.00085300;4.17406100;2024-03-08T05:42:40;38.75;;;13.55;;
9799;SDS011;4939;52.00085300;4.17406100;2024-03-08T05:45:06;35.22;;;13.15;;
9799;SDS011;4939;52.00085300;4.17406100;2024-03-08T05:47:33;38.40;;;13.68;;
9799;SDS011;4939;52.00085300;4.17406100;2024-03-08T05:50:00;37.35;;;12.95;;
9799;SDS011;4939;52.00085300;4.17406100;2024-03-08T05:52:26;37.20;;;13.18;;
9799;SDS011;4939;52.00085300;4.17406100;2024-03-08T05:54:53;39.05;;;13.15;;
9799;SDS011;4939;52.00085300;4.17406100;2024-03-08T05:57:19;36.58;;;14.13;;
9799;SDS011;4939;52.00085300;4.17406100;2024-03-08T05:59:47;39.67;;;14.05;;
9799;SDS011;4939;52.00085300;4.17406100;2024-03-08T06:02:13;40.50;;;14.60;;
9799;SDS011;4939;52.00085300;4.17406100;2024-03-08T06:04:44;38.15;;;14.00;;
9799;SDS011;4939;52.00085300;4.17406100;2024-03-08T06:07:11;39.17;;;14.07;;
9799;SDS011;4939;52.00085300;4.17406100;2024-03-08T06:09:38;42.10;;;13.68;;
9799;SDS011;4939;52.00085300;4.17406100;2024-03-08T06:12:03;38.53;;;13.77;;
9799;SDS011;4939;52.00085300;4.17406100;2024-03-08T06:14:31;41.55;;;14.80;;
9799;SDS011;4939;52.00085300;4.17406100;2024-03-08T06:16:57;36.17;;;13.80;;
9799;SDS011;4939;52.00085300;4.17406100;2024-03-08T06:19:23;34.20;;;13.50;;
9799;SDS011;4939;52.00085300;4.17406100;2024-03-08T06:21:50;43.20;;;15.02;;
9799;SDS011;4939;52.00085300;4.17406100;2024-03-08T06:24:16;41.38;;;13.98;;
9799;SDS011;4939;52.00085300;4.17406100;2024-03-08T06:26:42;41.20;;;15.00;;
9799;SDS011;4939;52.00085300;4.17406100;2024-03-08T06:29:08;39.00;;;13.38;;
9799;SDS011;4939;52.00085300;4.17406100;2024-03-08T06:31:35;41.45;;;13.98;;
9799;SDS011;4939;52.00085300;4.17406100;2024-03-08T06:34:04;44.00;;;15.07;;
9799;SDS011;4939;52.00085300;4.17406100;2024-03-08T06:36:33;39.13;;;13.80;;
9799;SDS011;4939;52.00085300;4.17406100;2024-03-08T06:38:59;37.22;;;12.93;;
9799;SDS011;4939;52.00085300;4.17406100;2024-03-08T06:41:25;39.42;;;14.63;;
9799;SDS011;4939;52.00085300;4.17406100;2024-03-08T06:43:52;41.95;;;15.27;;
9799;SDS011;4939;52.00085300;4.17406100;2024-03-08T06:46:22;41.97;;;14.18;;
9799;SDS011;4939;52.00085300;4.17406100;2024-03-08T06:48:48;37.15;;;13.57;;
9799;SDS011;4939;52.00085300;4.17406100;2024-03-08T06:51:14;39.42;;;14.27;;
9799;SDS011;4939;52.00085300;4.17406100;2024-03-08T06:53:40;42.58;;;14.40;;
9799;SDS011;4939;52.00085300;4.17406100;2024-03-08T06:56:06;37.65;;;14.55;;
9799;SDS011;4939;52.00085300;4.17406100;2024-03-08T06:58:33;38.05;;;14.00;;
9799;SDS011;4939;52.00085300;4.17406100;2024-03-08T07:00:59;39.30;;;14.68;;
9799;SDS011;4939;52.00085300;4.17406100;2024-03-08T07:03:29;38.38;;;13.32;;
9799;SDS011;4939;52.00085300;4.17406100;2024-03-08T07:05:55;40.13;;;13.73;;
9799;SDS011;4939;52.00085300;4.17406100;2024-03-08T07:08:23;37.72;;;13.52;;
9799;SDS011;4939;52.00085300;4.17406100;2024-03-08T07:10:49;39.92;;;13.65;;
9799;SDS011;4939;52.00085300;4.17406100;2024-03-08T07:13:15;37.90;;;13.18;;
9799;SDS011;4939;52.00085300;4.17406100;2024-03-08T07:15:42;37.33;;;12.70;;
9799;SDS011;4939;52.00085300;4.17406100;2024-03-08T07:18:08;36.35;;;13.07;;
9799;SDS011;4939;52.00085300;4.17406100;2024-03-08T07:20:39;37.25;;;13.13;;
9799;SDS011;4939;52.00085300;4.17406100;2024-03-08T07:23:05;41.08;;;14.30;;
9799;SDS011;4939;52.00085300;4.17406100;2024-03-08T07:25:31;38.65;;;13.43;;
9799;SDS011;4939;52.00085300;4.17406100;2024-03-08T07:27:57;41.97;;;14.27;;
9799;SDS011;4939;52.00085300;4.17406100;2024-03-08T07:30:24;41.78;;;15.15;;
9799;SDS011;4939;52.00085300;4.17406100;2024-03-08T07:33:08;37.38;;;13.55;;
9799;SDS011;4939;52.00085300;4.17406100;2024-03-08T07:35:40;31.65;;;12.43;;
9799;SDS011;4939;52.00085300;4.17406100;2024-03-08T07:38:07;35.78;;;12.43;;
9799;SDS011;4939;52.00085300;4.17406100;2024-03-08T07:40:38;33.63;;;13.60;;
9799;SDS011;4939;52.00085300;4.17406100;2024-03-08T07:43:09;37.83;;;13.63;;
9799;SDS011;4939;52.00085300;4.17406100;2024-03-08T07:45:35;34.80;;;12.82;;
9799;SDS011;4939;52.00085300;4.17406100;2024-03-08T07:48:02;35.88;;;12.90;;
9799;SDS011;4939;52.00085300;4.17406100;2024-03-08T07:50:28;38.67;;;14.45;;
9799;SDS011;4939;52.00085300;4.17406100;2024-03-08T07:52:54;34.80;;;12.38;;
9799;SDS011;4939;52.00085300;4.17406100;2024-03-08T07:55:20;34.15;;;12.48;;
9799;SDS011;4939;52.00085300;4.17406100;2024-03-08T07:57:49;37.55;;;14.50;;
9799;SDS011;4939;52.00085300;4.17406100;2024-03-08T08:00:16;31.55;;;12.63;;
9799;SDS011;4939;52.00085300;4.17406100;2024-03-08T08:02:45;38.15;;;12.60;;
9799;SDS011;4939;52.00085300;4.17406100;2024-03-08T08:05:11;40.92;;;14.02;;
9799;SDS011;4939;52.00085300;4.17406100;2024-03-08T08:07:38;32.83;;;12.05;;
9799;SDS011;4939;52.00085300;4.17406100;2024-03-08T08:10:08;30.85;;;11.23;;
9799;SDS011;4939;52.00085300;4.17406100;2024-03-08T08:12:41;32.00;;;13.38;;
9799;SDS011;4939;52.00085300;4.17406100;2024-03-08T08:15:08;38.70;;;13.98;;
9799;SDS011;4939;52.00085300;4.17406100;2024-03-08T08:17:34;34.60;;;14.27;;
9799;SDS011;4939;52.00085300;4.17406100;2024-03-08T08:20:00;36.17;;;13.40;;
9799;SDS011;4939;52.00085300;4.17406100;2024-03-08T08:22:30;35.55;;;13.80;;
9799;SDS011;4939;52.00085300;4.17406100;2024-03-08T08:24:56;38.25;;;13.90;;
9799;SDS011;4939;52.00085300;4.17406100;2024-03-08T08:27:22;35.25;;;13.27;;
9799;SDS011;4939;52.00085300;4.17406100;2024-03-08T08:29:48;37.65;;;13.93;;
9799;SDS011;4939;52.00085300;4.17406100;2024-03-08T08:32:14;33.42;;;13.65;;
9799;SDS011;4939;52.00085300;4.17406100;2024-03-08T08:34:40;38.92;;;14.13;;
9799;SDS011;4939;52.00085300;4.17406100;2024-03-08T08:37:07;34.13;;;13.50;;
9799;SDS011;4939;52.00085300;4.17406100;2024-03-08T08:39:34;32.90;;;12.38;;
9799;SDS011;4939;52.00085300;4.17406100;2024-03-08T08:42:01;34.97;;;12.75;;
9799;SDS011;4939;52.00085300;4.17406100;2024-03-08T08:44:28;39.70;;;13.55;;
9799;SDS011;4939;52.00085300;4.17406100;2024-03-08T08:46:56;31.48;;;11.95;;
9799;SDS011;4939;52.00085300;4.17406100;2024-03-08T08:49:23;35.75;;;13.20;;
9799;SDS011;4939;52.00085300;4.17406100;2024-03-08T08:51:51;33.42;;;13.45;;
9799;SDS011;4939;52.00085300;4.17406100;2024-03-08T08:54:17;38.08;;;13.57;;
9799;SDS011;4939;52.00085300;4.17406100;2024-03-08T08:56:44;33.05;;;13.25;;
9799;SDS011;4939;52.00085300;4.17406100;2024-03-08T08:59:10;34.40;;;12.05;;
9799;SDS011;4939;52.00085300;4.17406100;2024-03-08T09:01:39;35.53;;;13.40;;
9799;SDS011;4939;52.00085300;4.17406100;2024-03-08T09:04:05;40.35;;;13.13;;
9799;SDS011;4939;52.00085300;4.17406100;2024-03-08T09:06:32;31.98;;;12.10;;
9799;SDS011;4939;52.00085300;4.17406100;2024-03-08T09:08:58;29.42;;;11.48;;
9799;SDS011;4939;52.00085300;4.17406100;2024-03-08T09:11:24;31.63;;;11.73;;
9799;SDS011;4939;52.00085300;4.17406100;2024-03-08T09:13:51;34.13;;;13.27;;
9799;SDS011;4939;52.00085300;4.17406100;2024-03-08T09:16:18;34.85;;;12.90;;
9799;SDS011;4939;52.00085300;4.17406100;2024-03-08T09:18:44;32.50;;;12.90;;
9799;SDS011;4939;52.00085300;4.17406100;2024-03-08T09:21:10;33.40;;;12.93;;
9799;SDS011;4939;52.00085300;4.17406100;2024-03-08T09:23:38;33.35;;;12.68;;
9799;SDS011;4939;52.00085300;4.17406100;2024-03-08T09:26:05;34.25;;;13.68;;
9799;SDS011;4939;52.00085300;4.17406100;2024-03-08T09:28:34;28.98;;;11.93;;
9799;SDS011;4939;52.00085300;4.17406100;2024-03-08T09:31:00;35.63;;;13.27;;
9799;SDS011;4939;52.00085300;4.17406100;2024-03-08T09:33:26;36.17;;;12.73;;
9799;SDS011;4939;52.00085300;4.17406100;2024-03-08T09:35:53;32.10;;;12.15;;
9799;SDS011;4939;52.00085300;4.17406100;2024-03-08T09:38:20;37.38;;;14.90;;
9799;SDS011;4939;52.00085300;4.17406100;2024-03-08T09:40:46;35.22;;;13.35;;
9799;SDS011;4939;52.00085300;4.17406100;2024-03-08T09:43:13;31.77;;;13.18;;
9799;SDS011;4939;52.00085300;4.17406100;2024-03-08T09:45:39;38.90;;;13.63;;
9799;SDS011;4939;52.00085300;4.17406100;2024-03-08T09:48:08;31.77;;;13.25;;
9799;SDS011;4939;52.00085300;4.17406100;2024-03-08T09:50:37;29.17;;;13.10;;
9799;SDS011;4939;52.00085300;4.17406100;2024-03-08T09:53:04;35.78;;;13.73;;
9799;SDS011;4939;52.00085300;4.17406100;2024-03-08T09:55:34;38.83;;;14.30;;
9799;SDS011;4939;52.00085300;4.17406100;2024-03-08T09:58:07;34.75;;;13.30;;
9799;SDS011;4939;52.00085300;4.17406100;2024-03-08T10:00:52;31.70;;;13.43;;
9799;SDS011;4939;52.00085300;4.17406100;2024-03-08T10:03:19;34.05;;;13.82;;
9799;SDS011;4939;52.00085300;4.17406100;2024-03-08T10:05:45;32.13;;;12.95;;
9799;SDS011;4939;52.00085300;4.17406100;2024-03-08T10:08:11;29.40;;;13.00;;
9799;SDS011;4939;52.00085300;4.17406100;2024-03-08T10:10:38;35.75;;;15.27;;
9799;SDS011;4939;52.00085300;4.17406100;2024-03-08T10:13:08;32.67;;;14.05;;
9799;SDS011;4939;52.00085300;4.17406100;2024-03-08T10:15:35;33.78;;;14.43;;
9799;SDS011;4939;52.00085300;4.17406100;2024-03-08T10:18:01;31.42;;;13.27;;
9799;SDS011;4939;52.00085300;4.17406100;2024-03-08T10:20:27;32.30;;;12.70;;
9799;SDS011;4939;52.00085300;4.17406100;2024-03-08T10:23:02;31.75;;;13.45;;
9799;SDS011;4939;52.00085300;4.17406100;2024-03-08T10:25:30;30.40;;;13.02;;
9799;SDS011;4939;52.00085300;4.17406100;2024-03-08T10:27:56;30.55;;;12.95;;
9799;SDS011;4939;52.00085300;4.17406100;2024-03-08T10:30:22;36.40;;;14.32;;
9799;SDS011;4939;52.00085300;4.17406100;2024-03-08T10:32:48;34.17;;;13.07;;
9799;SDS011;4939;52.00085300;4.17406100;2024-03-08T10:35:14;28.20;;;12.75;;
9799;SDS011;4939;52.00085300;4.17406100;2024-03-08T10:37:45;29.27;;;12.75;;
9799;SDS011;4939;52.00085300;4.17406100;2024-03-08T10:40:22;34.70;;;13.93;;
9799;SDS011;4939;52.00085300;4.17406100;2024-03-08T10:42:51;28.45;;;12.73;;
9799;SDS011;4939;52.00085300;4.17406100;2024-03-08T10:45:35;29.73;;;13.23;;
9799;SDS011;4939;52.00085300;4.17406100;2024-03-08T10:50:56;27.48;;;12.77;;
9799;SDS011;4939;52.00085300;4.17406100;2024-03-08T10:53:22;28.00;;;12.68;;
9799;SDS011;4939;52.00085300;4.17406100;2024-03-08T10:58:19;26.90;;;12.25;;
9799;SDS011;4939;52.00085300;4.17406100;2024-03-08T11:00:46;28.20;;;11.77;;
9799;SDS011;4939;52.00085300;4.17406100;2024-03-08T11:08:33;24.70;;;10.70;;
9799;SDS011;4939;52.00085300;4.17406100;2024-03-08T11:10:59;25.60;;;11.60;;
9799;SDS011;4939;52.00085300;4.17406100;2024-03-08T11:13:35;26.70;;;11.45;;
9799;SDS011;4939;52.00085300;4.17406100;2024-03-08T11:16:09;26.58;;;11.73;;
9799;SDS011;4939;52.00085300;4.17406100;2024-03-08T11:18:36;26.75;;;11.52;;
9799;SDS011;4939;52.00085300;4.17406100;2024-03-08T11:21:09;27.63;;;11.90;;
9799;SDS011;4939;52.00085300;4.17406100;2024-03-08T11:23:38;25.52;;;11.65;;
9799;SDS011;4939;52.00085300;4.17406100;2024-03-08T11:26:26;28.30;;;12.25;;
9799;SDS011;4939;52.00085300;4.17406100;2024-03-08T11:28:51;25.27;;;11.02;;
9799;SDS011;4939;52.00085300;4.17406100;2024-03-08T11:36:20;26.80;;;10.45;;
9799;SDS011;4939;52.00085300;4.17406100;2024-03-08T11:38:50;24.77;;;10.70;;
9799;SDS011;4939;52.00085300;4.17406100;2024-03-08T11:41:18;24.30;;;10.35;;
9799;SDS011;4939;52.00085300;4.17406100;2024-03-08T11:43:45;25.23;;;10.73;;
9799;SDS011;4939;52.00085300;4.17406100;2024-03-08T11:46:12;21.33;;;9.50;;
9799;SDS011;4939;52.00085300;4.17406100;2024-03-08T11:48:42;23.80;;;10.13;;
9799;SDS011;4939;52.00085300;4.17406100;2024-03-08T11:51:12;27.92;;;10.68;;
9799;SDS011;4939;52.00085300;4.17406100;2024-03-08T11:53:39;22.65;;;9.05;;
9799;SDS011;4939;52.00085300;4.17406100;2024-03-08T11:56:09;28.92;;;10.60;;
9799;SDS011;4939;52.00085300;4.17406100;2024-03-08T11:58:37;20.35;;;9.13;;
9799;SDS011;4939;52.00085300;4.17406100;2024-03-08T12:01:04;23.02;;;10.10;;
9799;SDS011;4939;52.00085300;4.17406100;2024-03-08T12:03:30;24.52;;;10.60;;
9799;SDS011;4939;52.00085300;4.17406100;2024-03-08T12:06:00;26.58;;;10.00;;
9799;SDS011;4939;52.00085300;4.17406100;2024-03-08T12:08:27;25.92;;;10.68;;
9799;SDS011;4939;52.00085300;4.17406100;2024-03-08T12:10:56;20.65;;;9.73;;
9799;SDS011;4939;52.00085300;4.17406100;2024-03-08T12:13:28;24.17;;;10.07;;
9799;SDS011;4939;52.00085300;4.17406100;2024-03-08T12:15:59;28.55;;;10.32;;
9799;SDS011;4939;52.00085300;4.17406100;2024-03-08T12:18:28;20.83;;;10.18;;
9799;SDS011;4939;52.00085300;4.17406100;2024-03-08T12:21:04;25.10;;;10.95;;
9799;SDS011;4939;52.00085300;4.17406100;2024-03-08T12:23:34;22.40;;;9.73;;
9799;SDS011;4939;52.00085300;4.17406100;2024-03-08T12:26:13;24.50;;;10.65;;
9799;SDS011;4939;52.00085300;4.17406100;2024-03-08T12:28:49;24.45;;;10.18;;
9799;SDS011;4939;52.00085300;4.17406100;2024-03-08T12:31:18;22.17;;;9.23;;
9799;SDS011;4939;52.00085300;4.17406100;2024-03-08T12:33:48;28.73;;;11.15;;
9799;SDS011;4939;52.00085300;4.17406100;2024-03-08T12:36:15;22.15;;;9.75;;
9799;SDS011;4939;52.00085300;4.17406100;2024-03-08T12:38:48;26.45;;;11.05;;
9799;SDS011;4939;52.00085300;4.17406100;2024-03-08T12:41:17;24.55;;;10.75;;
9799;SDS011;4939;52.00085300;4.17406100;2024-03-08T12:43:47;22.77;;;10.60;;
9799;SDS011;4939;52.00085300;4.17406100;2024-03-08T12:46:16;23.33;;;9.98;;
9799;SDS011;4939;52.00085300;4.17406100;2024-03-08T12:48:43;23.60;;;10.25;;
9799;SDS011;4939;52.00085300;4.17406100;2024-03-08T12:51:15;25.23;;;10.70;;
9799;SDS011;4939;52.00085300;4.17406100;2024-03-08T12:53:43;23.88;;;10.60;;
9799;SDS011;4939;52.00085300;4.17406100;2024-03-08T12:56:12;26.58;;;10.90;;
9799;SDS011;4939;52.00085300;4.17406100;2024-03-08T12:58:42;27.75;;;10.98;;
9799;SDS011;4939;52.00085300;4.17406100;2024-03-08T13:01:09;23.50;;;10.07;;
9799;SDS011;4939;52.00085300;4.17406100;2024-03-08T13:03:35;24.38;;;10.05;;
9799;SDS011;4939;52.00085300;4.17406100;2024-03-08T13:06:02;25.85;;;10.95;;
9799;SDS011;4939;52.00085300;4.17406100;2024-03-08T13:08:33;24.52;;;10.63;;